Time;durP1;ratioP1;P1;durP2;ratioP2;P2;SDS_P1;SDS_P2;PMS_P1;PMS_P2;Temp;Humidity;BMP_temperature;BMP_pressure;BME280_temperature;BME280_humidity;BME280_pressure;Samples;Min_cycle;Max_cycle;Signal;HPM_P1;HPM_P2
2024/03/28 00:01:07;;;;;;;8.35;5.80;;;8.60;61.80;;;;;;5031036;28;20402;-72
2024/03/28 00:03:33;;;;;;;7.93;5.65;;;8.70;61.30;;;;;;5031347;28;20471;-72
2024/03/28 00:05:59;;;;;;;10.27;5.97;;;8.60;60.90;;;;;;5031665;28;20399;-71
2024/03/28 00:08:27;;;;;;;8.40;5.72;;;8.50;61.80;;;;;;5031485;28;20810;-71
2024/03/28 00:10:53;;;;;;;8.30;6.10;;;8.50;62.10;;;;;;5031098;28;20753;-71
2024/03/28 00:13:19;;;;;;;8.60;6.30;;;8.50;62.30;;;;;;5031218;28;20409;-71
2024/03/28 00:15:45;;;;;;;9.20;5.70;;;8.50;61.80;;;;;;5030665;28;20402;-72
2024/03/28 00:18:10;;;;;;;8.23;6.20;;;8.50;61.70;;;;;;5030763;28;20383;-72
2024/03/28 00:20:36;;;;;;;12.68;6.55;;;8.40;61.80;;;;;;5030335;28;20402;-71
2024/03/28 00:23:03;;;;;;;8.90;6.00;;;8.50;61.80;;;;;;5030565;28;20383;-72
2024/03/28 00:25:31;;;;;;;7.60;5.50;;;8.50;61.60;;;;;;5030734;28;20371;-71
2024/03/28 00:28:02;;;;;;;12.88;6.32;;;8.50;61.60;;;;;;5031963;28;20383;-71
2024/03/28 00:30:28;;;;;;;9.55;5.75;;;8.50;61.60;;;;;;5030797;28;20383;-71
2024/03/28 00:32:53;;;;;;;9.27;6.20;;;8.40;61.90;;;;;;5031989;28;20398;-71
2024/03/28 00:35:19;;;;;;;7.30;5.50;;;8.50;61.10;;;;;;5032566;28;20409;-71
2024/03/28 00:37:44;;;;;;;9.60;6.18;;;8.50;60.80;;;;;;5030249;28;20496;-71
2024/03/28 00:40:12;;;;;;;11.95;6.40;;;8.50;60.40;;;;;;5030548;28;20403;-71
2024/03/28 00:42:38;;;;;;;8.60;5.83;;;8.40;60.60;;;;;;5029946;28;20528;-70
2024/03/28 00:45:04;;;;;;;7.50;5.68;;;8.40;60.60;;;;;;5030744;28;20846;-72
2024/03/28 00:47:29;;;;;;;9.20;6.22;;;8.40;60.90;;;;;;5034192;28;20371;-71
2024/03/28 00:49:55;;;;;;;8.50;5.73;;;8.40;60.40;;;;;;5033261;28;20478;-72
2024/03/28 00:52:21;;;;;;;7.30;5.93;;;8.40;60.30;;;;;;5033220;28;20383;-72
2024/03/28 00:54:48;;;;;;;8.68;6.10;;;8.60;58.90;;;;;;5034066;28;20391;-71
2024/03/28 00:57:13;;;;;;;10.40;6.45;;;8.70;58.30;;;;;;5032598;28;20391;-72
2024/03/28 00:59:39;;;;;;;11.15;6.00;;;8.60;58.10;;;;;;5030690;28;20438;-71
2024/03/28 01:02:05;;;;;;;9.40;5.30;;;8.60;58.70;;;;;;5030337;28;20420;-71
2024/03/28 01:04:30;;;;;;;6.90;4.93;;;8.60;58.40;;;;;;5030695;28;20786;-72
2024/03/28 01:06:56;;;;;;;9.63;4.70;;;8.50;57.80;;;;;;5030212;28;20427;-71
2024/03/28 01:09:21;;;;;;;6.77;5.10;;;8.40;57.90;;;;;;5028753;28;20467;-72
2024/03/28 01:11:47;;;;;;;5.97;4.77;;;8.40;58.80;;;;;;5030019;28;20436;-71
2024/03/28 01:14:12;;;;;;;8.20;5.40;;;8.30;58.50;;;;;;5030257;28;20445;-71
2024/03/28 01:16:38;;;;;;;8.75;5.60;;;8.40;58.30;;;;;;5030573;28;20398;-71
2024/03/28 01:19:03;;;;;;;10.60;4.63;;;8.40;57.00;;;;;;5031318;28;20387;-70
2024/03/28 01:21:29;;;;;;;8.70;4.82;;;8.40;57.20;;;;;;5029913;28;20430;-72
2024/03/28 01:23:54;;;;;;;6.20;4.30;;;8.30;57.20;;;;;;5030178;28;20415;-71
2024/03/28 01:26:20;;;;;;;7.10;4.87;;;8.30;57.70;;;;;;5030195;28;20379;-71
2024/03/28 01:28:45;;;;;;;7.00;4.80;;;8.40;57.70;;;;;;5030185;28;20748;-70
2024/03/28 01:31:11;;;;;;;9.40;4.97;;;8.40;56.70;;;;;;5029777;28;20395;-71
2024/03/28 01:33:36;;;;;;;6.70;4.53;;;8.30;57.20;;;;;;5029940;28;20391;-72
2024/03/28 01:36:02;;;;;;;6.93;3.90;;;8.40;57.00;;;;;;5032001;28;20383;-71
2024/03/28 01:38:28;;;;;;;5.00;3.67;;;8.40;55.80;;;;;;5033633;28;20391;-71
2024/03/28 01:40:54;;;;;;;5.60;4.27;;;8.40;55.80;;;;;;5033430;28;20402;-71
2024/03/28 01:43:20;;;;;;;5.70;4.10;;;8.30;54.70;;;;;;5035591;28;20391;-72
2024/03/28 01:45:46;;;;;;;4.40;3.70;;;8.30;55.10;;;;;;5033917;28;20391;-72
2024/03/28 01:48:13;;;;;;;6.25;4.03;;;8.20;56.00;;;;;;5034111;28;20383;-70
2024/03/28 01:50:39;;;;;;;5.35;3.95;;;8.30;55.20;;;;;;5035511;28;20397;-72
2024/03/28 01:53:05;;;;;;;6.53;4.60;;;8.30;55.80;;;;;;5036081;28;20387;-71
2024/03/28 01:55:31;;;;;;;5.38;4.20;;;8.40;55.40;;;;;;5037733;28;20466;-71
2024/03/28 01:58:00;;;;;;;7.05;4.20;;;8.40;55.90;;;;;;5035782;28;20892;-72
2024/03/28 02:00:27;;;;;;;5.72;3.55;;;8.30;56.40;;;;;;5034595;28;20403;-72
2024/03/28 02:02:55;;;;;;;4.78;3.80;;;8.20;55.10;;;;;;5033447;28;20392;-71
2024/03/28 02:05:20;;;;;;;5.47;3.05;;;8.20;54.80;;;;;;5032719;28;20387;-71
2024/03/28 02:07:46;;;;;;;10.43;4.20;;;8.10;55.20;;;;;;5033252;28;20391;-71
2024/03/28 02:10:11;;;;;;;7.28;4.40;;;8.10;55.80;;;;;;5033017;28;20387;-71
2024/03/28 02:12:37;;;;;;;6.75;3.80;;;8.20;55.90;;;;;;5032755;28;20387;-71
2024/03/28 02:15:04;;;;;;;4.30;3.60;;;8.20;55.20;;;;;;5033080;28;20870;-71
2024/03/28 02:17:29;;;;;;;5.53;4.00;;;8.20;55.00;;;;;;5032975;28;20391;-71
2024/03/28 02:19:55;;;;;;;5.83;4.50;;;8.20;55.40;;;;;;5032605;28;20414;-71
2024/03/28 02:22:21;;;;;;;6.50;4.20;;;8.20;55.50;;;;;;5032533;28;20391;-71
2024/03/28 02:24:49;;;;;;;4.80;3.80;;;8.20;55.40;;;;;;5032668;28;20378;-71
2024/03/28 02:27:14;;;;;;;5.15;3.88;;;8.30;55.20;;;;;;5032791;28;20862;-71
2024/03/28 02:29:40;;;;;;;5.17;3.70;;;8.20;55.20;;;;;;5032956;28;20490;-71
2024/03/28 02:32:06;;;;;;;7.87;4.17;;;8.20;55.60;;;;;;5032359;28;20386;-71
2024/03/28 02:34:31;;;;;;;9.60;4.00;;;8.10;56.50;;;;;;5033151;28;20406;-70
2024/03/28 02:36:57;;;;;;;7.13;4.20;;;8.00;56.80;;;;;;5032901;28;20409;-73
2024/03/28 02:39:23;;;;;;;6.23;3.87;;;8.00;57.10;;;;;;5032551;28;20478;-71
2024/03/28 02:41:48;;;;;;;8.70;4.70;;;8.00;57.10;;;;;;5032504;28;20411;-72
2024/03/28 02:44:14;;;;;;;8.33;4.00;;;8.00;57.00;;;;;;5032430;28;20406;-70
2024/03/28 02:46:39;;;;;;;4.50;3.77;;;8.00;57.10;;;;;;5032384;28;20383;-71
2024/03/28 02:49:05;;;;;;;6.50;4.20;;;8.00;57.00;;;;;;5032560;28;20433;-72
2024/03/28 02:51:30;;;;;;;5.47;4.07;;;8.10;56.30;;;;;;5032227;28;20478;-72
2024/03/28 02:53:55;;;;;;;5.90;3.72;;;8.10;56.40;;;;;;5030887;28;20498;-72
2024/03/28 02:56:21;;;;;;;4.80;3.60;;;8.00;55.30;;;;;;5032198;28;20386;-72
2024/03/28 02:58:47;;;;;;;5.63;4.00;;;8.00;57.10;;;;;;5032408;28;20850;-72
2024/03/28 03:01:12;;;;;;;6.37;4.37;;;7.90;56.60;;;;;;5031896;28;20456;-72
2024/03/28 03:03:38;;;;;;;9.10;4.20;;;8.00;57.00;;;;;;5030524;28;20770;-72
2024/03/28 03:06:03;;;;;;;4.93;4.07;;;8.00;56.40;;;;;;5032111;28;20399;-71
2024/03/28 03:08:29;;;;;;;5.93;4.20;;;8.00;55.70;;;;;;5032311;28;20482;-71
2024/03/28 03:10:54;;;;;;;6.27;4.37;;;7.90;57.40;;;;;;5030375;28;20474;-71
2024/03/28 03:13:20;;;;;;;7.43;4.40;;;7.90;57.90;;;;;;5031990;28;20419;-71
2024/03/28 03:15:54;;;;;;;5.20;3.83;;;7.90;57.40;;;;;;5031564;28;20402;-73
2024/03/28 03:18:25;;;;;;;6.88;3.67;;;7.90;57.00;;;;;;5031765;28;20886;-71
2024/03/28 03:21:04;;;;;;;6.03;4.20;;;7.90;56.10;;;;;;5031548;28;20735;-72
2024/03/28 03:23:35;;;;;;;7.60;4.38;;;8.00;57.10;;;;;;5031314;28;20395;-72
2024/03/28 03:26:11;;;;;;;6.38;4.50;;;7.90;56.60;;;;;;5031640;28;20383;-72
2024/03/28 03:36:52;;;;;;;7.28;4.50;;;7.90;57.20;;;;;;5031380;28;20458;-71
2024/03/28 03:39:17;;;;;;;8.80;4.75;;;7.90;56.60;;;;;;5031196;28;20395;-72
2024/03/28 03:41:43;;;;;;;5.88;4.57;;;7.90;57.30;;;;;;5029895;28;20478;-72
2024/03/28 03:44:09;;;;;;;7.55;4.70;;;7.90;56.80;;;;;;5031390;28;20403;-72
2024/03/28 03:46:35;;;;;;;8.50;4.70;;;7.90;56.80;;;;;;5031173;28;20387;-71
2024/03/28 03:49:00;;;;;;;6.45;5.00;;;7.80;56.90;;;;;;5031091;28;20393;-72
2024/03/28 03:51:26;;;;;;;4.95;3.92;;;7.90;57.00;;;;;;5030742;28;20387;-71
2024/03/28 03:53:51;;;;;;;6.15;4.82;;;7.90;56.10;;;;;;5030938;28;20387;-71
2024/03/28 03:56:17;;;;;;;7.85;5.15;;;7.80;56.60;;;;;;5030891;28;20406;-71
2024/03/28 03:58:42;;;;;;;6.90;4.50;;;7.90;56.20;;;;;;5030878;28;20834;-71
2024/03/28 04:01:08;;;;;;;8.00;4.60;;;7.80;56.20;;;;;;5031169;28;20403;-71
2024/03/28 04:03:33;;;;;;;8.27;4.97;;;7.90;56.50;;;;;;5030898;28;20387;-71
2024/03/28 04:06:02;;;;;;;8.60;5.57;;;7.80;56.20;;;;;;5030673;28;20375;-71
2024/03/28 04:08:28;;;;;;;6.63;4.40;;;7.80;56.70;;;;;;5031031;28;20387;-71
2024/03/28 04:10:54;;;;;;;6.57;4.55;;;7.80;57.20;;;;;;5030535;28;20393;-71
2024/03/28 04:13:20;;;;;;;6.33;4.80;;;7.80;56.30;;;;;;5029496;28;20395;-71
2024/03/28 04:15:46;;;;;;;6.30;4.80;;;7.80;56.20;;;;;;5031107;28;20398;-71
2024/03/28 04:18:13;;;;;;;6.70;4.87;;;7.70;56.30;;;;;;5030858;28;21010;-70
2024/03/28 04:20:39;;;;;;;6.90;5.20;;;7.80;56.10;;;;;;5030636;28;20407;-71
2024/03/28 04:23:05;;;;;;;7.90;4.82;;;7.80;55.70;;;;;;5031121;28;20797;-71
2024/03/28 04:25:31;;;;;;;7.40;5.10;;;7.70;57.10;;;;;;5030583;28;20469;-71
2024/03/28 04:27:57;;;;;;;9.18;5.28;;;7.70;56.60;;;;;;5030611;28;20383;-71
2024/03/28 04:30:30;;;;;;;8.13;5.37;;;7.60;56.90;;;;;;5030245;28;20386;-71
2024/03/28 04:32:56;;;;;;;6.50;4.80;;;7.60;56.90;;;;;;5029416;28;20452;-71
2024/03/28 04:35:23;;;;;;;8.23;4.90;;;7.60;57.00;;;;;;5030493;28;20893;-71
2024/03/28 04:37:49;;;;;;;8.07;4.47;;;7.60;56.30;;;;;;5030373;28;20419;-71
2024/03/28 04:40:15;;;;;;;9.07;4.90;;;7.50;56.70;;;;;;5030831;28;20437;-71
2024/03/28 04:42:41;;;;;;;7.13;5.00;;;7.50;58.30;;;;;;5030555;28;20380;-71
2024/03/28 04:45:08;;;;;;;6.65;4.60;;;7.50;57.00;;;;;;5030325;28;20893;-72
2024/03/28 04:47:35;;;;;;;9.70;4.90;;;7.50;56.90;;;;;;5030510;28;20402;-72
2024/03/28 04:50:01;;;;;;;5.88;4.78;;;7.40;58.00;;;;;;5029942;28;20387;-72
2024/03/28 04:52:26;;;;;;;8.23;5.07;;;7.40;57.60;;;;;;5029746;28;20391;-72
2024/03/28 04:54:52;;;;;;;6.67;5.40;;;7.40;57.60;;;;;;5029416;28;20398;-72
2024/03/28 04:57:18;;;;;;;8.57;5.00;;;7.40;58.20;;;;;;5029762;28;20927;-72
2024/03/28 04:59:43;;;;;;;8.13;5.77;;;7.40;58.50;;;;;;5030200;28;20405;-70
2024/03/28 05:02:09;;;;;;;8.97;5.33;;;7.30;60.10;;;;;;5029237;28;20473;-68
2024/03/28 05:04:35;;;;;;;8.55;5.70;;;7.30;61.40;;;;;;5029843;28;20387;-70
2024/03/28 05:07:01;;;;;;;11.00;5.15;;;7.30;61.50;;;;;;5029334;28;20389;-70
2024/03/28 05:09:27;;;;;;;8.70;5.73;;;7.30;61.10;;;;;;5030862;28;20387;-70
2024/03/28 05:11:53;;;;;;;8.00;5.90;;;7.20;59.90;;;;;;5033106;28;20390;-69
2024/03/28 05:14:18;;;;;;;7.78;5.38;;;7.20;60.90;;;;;;5033204;28;20412;-69
2024/03/28 05:16:44;;;;;;;10.30;6.78;;;7.20;58.70;;;;;;5033129;28;20387;-69
2024/03/28 05:19:10;;;;;;;9.13;6.20;;;7.20;59.70;;;;;;5033539;28;20391;-72
2024/03/28 05:21:36;;;;;;;11.45;6.28;;;7.20;59.00;;;;;;5032422;28;20411;-68
2024/03/28 05:24:01;;;;;;;10.93;6.43;;;7.30;58.50;;;;;;5033116;28;20375;-69
2024/03/28 05:26:27;;;;;;;8.90;5.97;;;7.30;58.60;;;;;;5033736;28;20414;-68
2024/03/28 05:28:52;;;;;;;11.80;6.30;;;7.30;58.30;;;;;;5033384;28;20453;-68
2024/03/28 05:31:18;;;;;;;11.80;6.40;;;7.30;58.90;;;;;;5032589;28;20448;-70
2024/03/28 05:33:44;;;;;;;11.67;6.80;;;7.30;57.80;;;;;;5033953;28;20462;-72
2024/03/28 05:36:11;;;;;;;11.23;5.88;;;7.30;57.10;;;;;;5033929;28;20384;-71
2024/03/28 05:38:36;;;;;;;7.90;6.00;;;7.50;56.10;;;;;;5033351;28;20403;-71
2024/03/28 05:41:02;;;;;;;10.50;5.80;;;7.40;55.60;;;;;;5033473;28;20402;-71
2024/03/28 05:43:28;;;;;;;8.87;5.60;;;7.40;56.70;;;;;;5033749;28;20884;-71
2024/03/28 05:45:53;;;;;;;9.87;5.80;;;7.40;56.00;;;;;;5034298;28;20474;-71
2024/03/28 05:48:19;;;;;;;10.23;5.50;;;7.40;55.90;;;;;;5033484;28;20453;-71
2024/03/28 05:50:45;;;;;;;8.85;5.75;;;7.40;56.10;;;;;;5033134;28;20395;-70
2024/03/28 05:53:10;;;;;;;9.40;5.77;;;7.50;55.60;;;;;;5033259;28;20382;-71
2024/03/28 05:55:36;;;;;;;12.00;6.67;;;7.40;55.50;;;;;;5033268;28;20398;-71
2024/03/28 05:58:02;;;;;;;8.85;5.45;;;7.40;56.20;;;;;;5033019;28;20383;-71
2024/03/28 06:00:28;;;;;;;8.13;5.80;;;7.40;56.00;;;;;;5035000;28;20399;-71
2024/03/28 06:02:53;;;;;;;8.57;5.40;;;7.50;56.30;;;;;;5036847;28;20445;-71
2024/03/28 06:05:19;;;;;;;11.77;5.67;;;7.50;55.10;;;;;;5036029;28;20886;-71
2024/03/28 06:07:45;;;;;;;10.85;5.97;;;7.60;54.60;;;;;;5034287;28;20387;-71
2024/03/28 06:10:10;;;;;;;9.30;5.80;;;7.70;54.20;;;;;;5033617;28;20391;-71
2024/03/28 06:12:36;;;;;;;8.33;5.63;;;7.70;54.00;;;;;;5031917;28;20402;-71
2024/03/28 06:15:02;;;;;;;6.20;5.27;;;7.70;53.40;;;;;;5032282;28;20486;-71
2024/03/28 06:17:27;;;;;;;6.60;5.43;;;7.80;52.20;;;;;;5032569;28;20468;-71
2024/03/28 06:19:53;;;;;;;7.37;4.90;;;7.90;52.80;;;;;;5032426;28;20414;-71
2024/03/28 06:22:19;;;;;;;7.60;4.77;;;7.90;50.80;;;;;;5031564;28;20383;-71
2024/03/28 06:24:45;;;;;;;6.63;4.90;;;8.10;50.30;;;;;;5032227;28;20441;-71
2024/03/28 06:27:12;;;;;;;6.45;4.15;;;8.20;48.70;;;;;;5032527;28;20423;-71
2024/03/28 06:29:49;;;;;;;12.57;5.28;;;8.30;47.50;;;;;;5032014;28;20383;-72
2024/03/28 06:32:24;;;;;;;7.85;4.47;;;8.50;46.80;;;;;;5032532;28;20963;-71
2024/03/28 06:34:50;;;;;;;7.13;4.70;;;8.70;46.00;;;;;;5032517;28;20399;-71
2024/03/28 06:37:17;;;;;;;7.15;4.72;;;8.90;44.70;;;;;;5032196;28;20390;-71
2024/03/28 06:39:42;;;;;;;8.57;4.50;;;9.00;44.70;;;;;;5031968;28;20383;-71
2024/03/28 06:42:08;;;;;;;9.05;5.03;;;9.20;42.30;;;;;;5031994;28;20489;-71
2024/03/28 06:44:33;;;;;;;9.40;4.90;;;9.20;42.10;;;;;;5032344;28;20402;-71
2024/03/28 06:46:59;;;;;;;6.90;5.30;;;9.40;41.60;;;;;;5032320;28;20383;-72
2024/03/28 06:49:24;;;;;;;7.90;4.30;;;9.60;40.30;;;;;;5031870;28;20390;-72
2024/03/28 06:51:50;;;;;;;4.20;3.40;;;9.90;39.90;;;;;;5031720;28;20870;-72
2024/03/28 06:54:16;;;;;;;7.33;3.83;;;10.10;37.30;;;;;;5031749;28;20817;-72
2024/03/28 06:56:41;;;;;;;6.27;4.10;;;10.30;36.30;;;;;;5031704;28;20743;-72
2024/03/28 06:59:07;;;;;;;5.40;3.73;;;10.30;36.30;;;;;;5032010;28;20401;-72
2024/03/28 07:01:32;;;;;;;6.38;3.40;;;10.30;35.80;;;;;;5031462;28;20769;-72
2024/03/28 07:03:58;;;;;;;5.82;3.33;;;10.50;34.90;;;;;;5031992;28;20391;-73
2024/03/28 07:06:23;;;;;;;6.63;3.30;;;10.50;34.80;;;;;;5032231;28;20414;-72
2024/03/28 07:08:49;;;;;;;5.07;3.37;;;10.50;34.40;;;;;;5030958;28;20475;-71
2024/03/28 07:11:14;;;;;;;5.20;2.60;;;10.40;34.10;;;;;;5031069;28;20391;-71
2024/03/28 07:13:40;;;;;;;5.10;3.43;;;10.40;33.70;;;;;;5031065;28;20398;-72
2024/03/28 07:16:06;;;;;;;5.03;3.20;;;10.40;34.50;;;;;;5031441;28;20900;-72
2024/03/28 07:18:31;;;;;;;6.35;3.00;;;10.50;34.20;;;;;;5031263;28;20470;-71
2024/03/28 07:20:57;;;;;;;5.40;2.75;;;10.70;34.10;;;;;;5031035;28;20924;-71
2024/03/28 07:23:22;;;;;;;5.78;2.42;;;10.80;33.40;;;;;;5031167;28;20433;-71
2024/03/28 07:25:48;;;;;;;5.77;2.57;;;10.80;33.00;;;;;;5030856;28;20391;-71
2024/03/28 07:28:14;;;;;;;5.90;2.90;;;10.90;32.30;;;;;;5030598;28;20388;-71
2024/03/28 07:30:39;;;;;;;9.57;3.10;;;10.90;32.80;;;;;;5030722;28;20881;-72
2024/03/28 07:33:05;;;;;;;3.07;2.43;;;10.80;33.00;;;;;;5029898;28;20405;-72
2024/03/28 07:35:31;;;;;;;4.00;2.70;;;10.90;32.80;;;;;;5031070;28;20474;-72
2024/03/28 07:37:57;;;;;;;3.88;2.72;;;10.80;33.40;;;;;;5030909;28;20423;-72
2024/03/28 07:40:22;;;;;;;4.87;3.30;;;10.70;34.00;;;;;;5030729;28;20849;-71
2024/03/28 07:42:48;;;;;;;5.97;2.90;;;10.50;35.00;;;;;;5030860;28;20758;-71
2024/03/28 07:45:14;;;;;;;3.13;2.65;;;10.40;35.60;;;;;;5032409;28;20386;-72
2024/03/28 07:47:39;;;;;;;5.65;2.70;;;10.30;36.20;;;;;;5032971;28;20387;-72
2024/03/28 07:50:06;;;;;;;6.82;3.20;;;10.20;36.70;;;;;;5031814;28;20878;-72
2024/03/28 07:52:31;;;;;;;3.78;2.60;;;10.30;36.60;;;;;;5031791;28;20383;-72
2024/03/28 07:54:57;;;;;;;5.90;2.80;;;10.30;37.20;;;;;;5031716;28;20391;-71
2024/03/28 07:57:22;;;;;;;6.67;3.17;;;10.20;37.20;;;;;;5030574;28;20904;-71
2024/03/28 07:59:48;;;;;;;4.63;3.30;;;10.30;37.20;;;;;;5030537;28;20434;-71
2024/03/28 08:02:14;;;;;;;5.00;2.65;;;10.30;37.60;;;;;;5031221;28;20418;-71
2024/03/28 08:04:41;;;;;;;6.23;3.00;;;10.20;38.80;;;;;;5030718;28;20593;-72
2024/03/28 08:07:07;;;;;;;9.05;3.70;;;10.20;40.70;;;;;;5031385;28;20457;-71
2024/03/28 08:09:32;;;;;;;6.43;3.53;;;10.10;42.40;;;;;;5030283;28;20882;-71
2024/03/28 08:11:58;;;;;;;7.05;2.80;;;10.00;43.60;;;;;;5031034;28;20391;-71
2024/03/28 08:14:24;;;;;;;8.00;3.27;;;9.90;44.30;;;;;;5044002;22;20465;-76
2024/03/28 08:16:49;;;;;;;7.45;3.47;;;9.80;45.90;;;;;;5037039;28;20387;-76
2024/03/28 08:19:15;;;;;;;6.20;3.80;;;9.70;47.10;;;;;;5039224;28;20775;-77
2024/03/28 08:21:40;;;;;;;7.63;3.20;;;9.60;49.10;;;;;;5039247;28;20407;-73
2024/03/28 08:24:06;;;;;;;8.17;4.50;;;9.50;49.50;;;;;;5036401;28;20398;-75
2024/03/28 08:26:32;;;;;;;7.00;3.63;;;9.60;49.40;;;;;;5053088;28;20397;-76
2024/03/28 08:28:58;;;;;;;6.03;3.97;;;9.50;50.40;;;;;;5054587;28;20381;-76
2024/03/28 08:31:23;;;;;;;7.27;3.70;;;9.40;51.80;;;;;;5039295;28;20413;-75
2024/03/28 08:33:49;;;;;;;5.97;3.37;;;9.40;52.40;;;;;;5054577;28;20386;-75
2024/03/28 08:36:15;;;;;;;6.70;3.50;;;9.30;53.10;;;;;;5054730;28;20396;-77
2024/03/28 08:38:40;;;;;;;5.75;3.28;;;9.20;53.60;;;;;;5056846;28;20428;-75
2024/03/28 08:41:06;;;;;;;7.50;3.70;;;9.30;54.60;;;;;;5057379;28;20419;-75
2024/03/28 08:43:33;;;;;;;4.88;3.53;;;9.30;55.20;;;;;;5057845;28;20386;-75
2024/03/28 08:45:58;;;;;;;18.00;3.63;;;9.30;56.40;;;;;;5061175;28;20474;-75
2024/03/28 08:48:24;;;;;;;3.37;2.73;;;9.20;56.50;;;;;;5062820;28;20385;-76
2024/03/28 08:50:49;;;;;;;4.93;3.50;;;9.20;56.90;;;;;;5061806;28;20943;-75
2024/03/28 08:53:16;;;;;;;6.13;3.40;;;9.30;56.90;;;;;;5045762;28;20418;-75
2024/03/28 08:55:41;;;;;;;6.68;3.67;;;9.30;58.40;;;;;;5062562;28;20384;-75
2024/03/28 08:58:07;;;;;;;6.32;3.38;;;9.30;58.00;;;;;;5063827;28;20393;-74
2024/03/28 09:00:34;;;;;;;5.90;3.50;;;9.30;58.60;;;;;;5063380;28;20444;-76
2024/03/28 09:02:59;;;;;;;5.37;3.00;;;9.30;58.10;;;;;;5062782;28;20412;-75
2024/03/28 09:05:25;;;;;;;5.10;2.90;;;9.40;56.80;;;;;;5064092;28;20477;-75
2024/03/28 09:07:53;;;;;;;5.55;2.90;;;9.40;57.50;;;;;;5045408;28;20427;-73
2024/03/28 09:10:19;;;;;;;5.10;3.10;;;9.50;58.10;;;;;;5062501;28;20729;-74
2024/03/28 09:12:47;;;;;;;5.80;2.90;;;9.50;58.00;;;;;;5067792;28;20462;-75
2024/03/28 09:15:14;;;;;;;3.47;2.70;;;9.50;57.10;;;;;;5069764;28;20417;-76
2024/03/28 09:17:40;;;;;;;4.68;3.92;;;9.70;57.30;;;;;;5071716;28;20404;-74
2024/03/28 09:20:06;;;;;;;5.60;3.40;;;9.80;57.40;;;;;;5070609;28;20397;-75
2024/03/28 09:22:33;;;;;;;7.00;3.30;;;9.90;57.80;;;;;;5067964;28;20392;-76
2024/03/28 09:25:00;;;;;;;5.78;3.85;;;9.90;55.90;;;;;;5063614;28;20385;-76
2024/03/28 09:27:27;;;;;;;6.80;3.50;;;10.10;54.80;;;;;;5064492;28;20405;-75
2024/03/28 09:29:54;;;;;;;10.32;4.00;;;10.10;55.00;;;;;;5066710;28;20385;-75
2024/03/28 09:32:20;;;;;;;5.25;3.10;;;10.30;55.10;;;;;;5061864;28;20385;-76
2024/03/28 09:34:46;;;;;;;6.03;3.50;;;10.30;54.60;;;;;;5063521;28;20405;-75
2024/03/28 09:37:12;;;;;;;5.65;3.10;;;10.40;54.30;;;;;;5067550;28;20810;-75
2024/03/28 09:39:37;;;;;;;8.23;3.80;;;10.50;53.30;;;;;;5068682;28;20421;-75
2024/03/28 09:42:06;;;;;;;9.33;3.40;;;10.70;53.90;;;;;;5066559;28;20400;-76
2024/03/28 09:44:35;;;;;;;7.57;3.42;;;11.00;49.90;;;;;;5066856;28;20382;-75
2024/03/28 09:47:01;;;;;;;7.68;2.75;;;11.00;49.20;;;;;;5067718;28;20411;-76
2024/03/28 09:49:27;;;;;;;4.32;2.45;;;10.90;47.60;;;;;;5065096;28;20436;-75
2024/03/28 09:51:56;;;;;;;3.92;3.00;;;10.90;47.50;;;;;;5065835;28;20396;-73
2024/03/28 09:54:22;;;;;;;4.35;2.63;;;10.80;48.40;;;;;;5068853;28;20382;-75
2024/03/28 09:56:48;;;;;;;4.45;2.40;;;10.70;48.80;;;;;;5064405;28;20405;-74
2024/03/28 09:59:14;;;;;;;2.78;2.05;;;10.80;48.60;;;;;;5047791;28;20400;-76
2024/03/28 10:01:41;;;;;;;4.33;2.60;;;10.90;48.30;;;;;;5064867;28;20462;-76
2024/03/28 10:04:19;;;;;;;2.65;2.20;;;11.00;47.20;;;;;;5064838;28;20396;-74
2024/03/28 10:06:53;;;;;;;5.70;2.40;;;11.00;46.10;;;;;;5065147;28;20393;-76
2024/03/28 10:09:18;;;;;;;4.40;3.00;;;10.90;47.10;;;;;;5063290;28;20401;-74
2024/03/28 10:11:44;;;;;;;3.35;1.98;;;10.60;48.30;;;;;;5061885;28;20386;-76
2024/03/28 10:14:18;;;;;;;6.70;3.10;;;10.50;49.20;;;;;;5062067;28;20400;-76
2024/03/28 10:16:48;;;;;;;3.33;2.20;;;10.50;49.60;;;;;;5061704;28;20480;-75
2024/03/28 10:19:18;;;;;;;4.68;2.15;;;10.60;49.00;;;;;;5063691;28;20382;-75
2024/03/28 10:21:46;;;;;;;2.58;1.70;;;10.60;48.50;;;;;;5059840;28;20496;-77
2024/03/28 10:24:18;;;;;;;3.13;2.10;;;10.50;48.60;;;;;;5059398;28;20437;-76
2024/03/28 10:26:44;;;;;;;2.28;1.75;;;10.50;48.70;;;;;;5061589;28;20385;-76
2024/03/28 10:29:12;;;;;;;2.60;1.80;;;10.60;47.20;;;;;;5059869;28;20391;-75
2024/03/28 10:31:39;;;;;;;3.60;1.67;;;10.60;48.30;;;;;;5059514;28;20382;-76
2024/03/28 10:34:12;;;;;;;2.50;1.70;;;10.70;47.50;;;;;;5060083;28;20447;-75
2024/03/28 10:36:38;;;;;;;2.10;1.40;;;10.50;48.50;;;;;;5059754;28;20408;-75
2024/03/28 10:39:09;;;;;;;3.15;1.50;;;10.50;47.80;;;;;;5062989;28;20385;-76
2024/03/28 10:41:35;;;;;;;3.80;1.67;;;10.30;49.20;;;;;;5060259;28;20405;-76
2024/03/28 10:44:01;;;;;;;3.28;1.75;;;10.20;48.70;;;;;;5059337;28;20386;-76
2024/03/28 10:46:29;;;;;;;2.50;1.70;;;10.20;51.10;;;;;;5052766;28;20385;-75
2024/03/28 10:48:58;;;;;;;2.38;1.38;;;10.40;51.40;;;;;;5052716;28;20373;-75
2024/03/28 10:51:35;;;;;;;3.45;1.80;;;10.70;49.40;;;;;;5060764;28;20381;-74
2024/03/28 10:54:25;;;;;;;3.08;1.40;;;10.90;48.20;;;;;;5055483;28;20464;-75
2024/03/28 10:56:53;;;;;;;5.10;1.50;;;11.00;47.50;;;;;;5053358;28;20389;-75
2024/03/28 10:59:21;;;;;;;5.15;1.63;;;11.10;44.90;;;;;;5057900;28;20461;-76
2024/03/28 11:01:48;;;;;;;2.60;1.30;;;11.00;46.10;;;;;;5056031;28;20484;-76
2024/03/28 11:04:16;;;;;;;2.80;1.70;;;11.00;45.20;;;;;;5051951;28;20409;-76
2024/03/28 11:06:43;;;;;;;2.40;1.40;;;11.20;44.90;;;;;;5051686;28;20373;-76
2024/03/28 11:09:10;;;;;;;2.90;1.35;;;11.40;44.30;;;;;;5052011;28;20393;-76
2024/03/28 11:11:36;;;;;;;1.50;1.40;;;11.60;42.80;;;;;;5053686;28;20381;-75
2024/03/28 11:14:03;;;;;;;3.65;1.30;;;11.90;42.20;;;;;;5052292;28;20902;-74
2024/03/28 11:16:28;;;;;;;2.75;1.50;;;12.10;40.30;;;;;;5034545;28;20397;-75
2024/03/28 11:19:00;;;;;;;3.20;1.25;;;12.40;39.30;;;;;;5054610;28;20400;-76
2024/03/28 11:21:26;;;;;;;3.10;1.30;;;12.70;37.00;;;;;;5037366;28;21095;-75
2024/03/28 11:23:53;;;;;;;2.75;1.25;;;13.00;35.80;;;;;;5056297;28;20390;-76
2024/03/28 11:26:24;;;;;;;3.00;1.23;;;13.30;32.40;;;;;;5055440;28;20384;-75
2024/03/28 11:29:02;;;;;;;4.05;1.13;;;13.40;30.60;;;;;;5052325;28;20383;-76
2024/03/28 11:31:28;;;;;;;3.30;1.58;;;13.70;30.10;;;;;;5053576;28;20393;-75
2024/03/28 11:34:01;;;;;;;3.70;1.40;;;13.90;28.30;;;;;;5056542;28;20416;-75
2024/03/28 11:36:28;;;;;;;3.00;1.10;;;14.00;27.40;;;;;;5053021;28;20957;-77
2024/03/28 11:38:53;;;;;;;2.40;1.35;;;13.90;27.30;;;;;;5054701;28;20393;-76
2024/03/28 11:41:21;;;;;;;2.72;1.40;;;13.80;28.00;;;;;;5054533;28;20405;-75
2024/03/28 11:43:46;;;;;;;2.67;1.23;;;13.90;27.40;;;;;;5055542;28;20883;-76
2024/03/28 11:46:12;;;;;;;1.98;1.20;;;13.80;25.60;;;;;;5056640;28;20381;-76
2024/03/28 11:48:38;;;;;;;3.90;1.20;;;13.80;27.00;;;;;;5055680;28;20382;-76
2024/03/28 11:51:05;;;;;;;3.75;1.20;;;14.10;26.30;;;;;;5056542;28;20381;-75
2024/03/28 11:53:34;;;;;;;3.60;1.17;;;14.20;25.60;;;;;;5055069;28;20397;-76
2024/03/28 11:56:01;;;;;;;2.30;1.20;;;14.20;24.00;;;;;;5053291;28;20382;-76
2024/03/28 11:58:31;;;;;;;3.90;1.13;;;14.30;25.30;;;;;;5051754;28;20458;-75
2024/03/28 12:00:58;;;;;;;3.28;1.10;;;14.40;23.50;;;;;;5051287;28;20748;-76
2024/03/28 12:03:24;;;;;;;1.98;1.05;;;14.40;22.40;;;;;;5052051;28;20879;-77
2024/03/28 12:05:51;;;;;;;1.98;0.90;;;14.40;22.30;;;;;;5051741;28;20439;-76
2024/03/28 12:08:21;;;;;;;2.08;1.10;;;14.50;21.90;;;;;;5051806;28;20389;-75
2024/03/28 12:10:47;;;;;;;2.33;1.23;;;14.30;20.50;;;;;;5053197;28;20384;-75
2024/03/28 12:13:13;;;;;;;4.13;0.90;;;14.10;21.10;;;;;;5052838;28;20397;-75
2024/03/28 12:15:38;;;;;;;2.40;0.90;;;13.80;19.90;;;;;;5052408;28;20896;-75
2024/03/28 12:18:04;;;;;;;6.90;1.30;;;13.50;20.60;;;;;;5054496;28;20871;-76
2024/03/28 12:20:30;;;;;;;1.33;0.95;;;13.10;21.30;;;;;;5034452;28;20404;-77
2024/03/28 12:22:58;;;;;;;2.78;0.93;;;12.80;23.30;;;;;;5053445;28;20752;-76
2024/03/28 12:25:24;;;;;;;3.50;1.02;;;12.80;22.70;;;;;;5052985;28;20432;-76
2024/03/28 12:28:03;;;;;;;4.78;1.30;;;13.00;22.40;;;;;;5052661;28;20389;-77
2024/03/28 12:30:30;;;;;;;2.73;1.00;;;13.30;21.90;;;;;;5050966;28;20392;-76
2024/03/28 12:33:03;;;;;;;3.85;0.90;;;13.70;21.90;;;;;;5050936;28;20425;-75
2024/03/28 12:35:31;;;;;;;2.20;0.90;;;14.10;20.70;;;;;;5051278;28;20436;-76
2024/03/28 12:37:56;;;;;;;6.95;2.30;;;14.30;19.40;;;;;;5051452;28;20381;-77
2024/03/28 12:40:24;;;;;;;5.32;1.10;;;14.00;18.50;;;;;;5051344;28;20403;-77
2024/03/28 12:42:51;;;;;;;5.40;1.50;;;13.90;18.10;;;;;;5051852;28;20420;-76
2024/03/28 12:45:19;;;;;;;4.43;1.50;;;13.90;17.90;;;;;;5051770;28;20393;-75
2024/03/28 12:47:46;;;;;;;4.72;1.10;;;14.10;18.40;;;;;;5052390;28;20797;-76
2024/03/28 12:50:14;;;;;;;3.45;1.30;;;14.20;17.20;;;;;;5051265;28;20377;-76
2024/03/28 12:52:53;;;;;;;1.92;1.00;;;14.10;16.70;;;;;;5057819;28;20377;-75
2024/03/28 12:55:19;;;;;;;3.80;1.08;;;13.80;17.10;;;;;;5054118;28;20733;-76
2024/03/28 12:57:46;;;;;;;5.97;0.98;;;13.70;17.50;;;;;;5051020;28;20397;-74